createdAt,value
2022-10-02T00:01:41.848Z,98721.05
2022-10-02T00:04:14.220Z,98716.77
2022-10-02T00:06:47.284Z,98710.60
2022-10-02T00:09:32.422Z,98716.72
2022-10-02T00:12:01.684Z,98728.32
2022-10-02T00:14:34.012Z,98730.33
2022-10-02T00:17:03.190Z,98733.91
2022-10-02T00:19:31.865Z,98742.21
2022-10-02T00:22:02.637Z,98746.38
2022-10-02T00:24:39.277Z,98740.61
2022-10-02T00:27:52.114Z,98733.05
2022-10-02T00:30:21.388Z,98730.32
2022-10-02T00:33:18.652Z,98729.55
2022-10-02T00:36:39.788Z,98727.73
2022-10-02T00:39:32.825Z,98732.94
2022-10-02T00:42:10.238Z,98736.20
2022-10-02T00:44:48.038Z,98729.30
2022-10-02T00:47:42.300Z,98723.98
2022-10-02T00:50:20.633Z,98725.19
2022-10-02T00:53:06.856Z,98732.27
2022-10-02T00:55:56.201Z,98714.88
2022-10-02T00:58:30.165Z,98713.95
2022-10-02T01:01:06.190Z,98721.45
2022-10-02T01:03:36.897Z,98716.44
2022-10-02T01:06:06.042Z,98716.71
2022-10-02T01:08:35.898Z,98710.17
2022-10-02T01:11:05.104Z,98710.62
2022-10-02T01:13:35.423Z,98712.35
2022-10-02T01:16:04.159Z,98714.74
2022-10-02T01:18:32.578Z,98709.70
2022-10-02T01:21:08.120Z,98708.81
2022-10-02T01:23:53.313Z,98702.66
2022-10-02T01:26:21.981Z,98699.10
2022-10-02T01:28:50.377Z,98702.70
2022-10-02T01:31:18.997Z,98713.73
2022-10-02T01:33:49.908Z,98712.82
2022-10-02T01:36:18.464Z,98711.95
2022-10-02T01:38:47.988Z,98716.36
2022-10-02T01:41:16.263Z,98721.13
2022-10-02T01:43:49.541Z,98718.61
2022-10-02T01:46:24.161Z,98719.69
2022-10-02T01:49:20.596Z,98725.23
2022-10-02T01:52:16.531Z,98721.73
2022-10-02T01:55:09.495Z,98723.98
2022-10-02T01:57:46.476Z,98722.19
2022-10-02T02:00:22.626Z,98717.59
2022-10-02T02:03:21.509Z,98716.98
2022-10-02T02:06:18.580Z,98713.63
2022-10-02T02:09:02.209Z,98711.52
2022-10-02T02:11:30.820Z,98707.00
2022-10-02T02:14:06.051Z,98703.89
2022-10-02T02:16:40.612Z,98703.00
2022-10-02T02:19:17.034Z,98705.17
2022-10-02T02:21:56.345Z,98706.60
2022-10-02T02:24:31.701Z,98701.70
2022-10-02T02:27:02.542Z,98703.28
2022-10-02T02:29:35.034Z,98700.52
2022-10-02T02:32:06.363Z,98700.71
2022-10-02T02:34:40.874Z,98700.61
2022-10-02T02:37:16.624Z,98706.65
2022-10-02T02:39:53.284Z,98713.25
2022-10-02T02:42:26.381Z,98714.32
2022-10-02T02:45:06.745Z,98714.88
2022-10-02T02:47:40.848Z,98711.30
2022-10-02T02:50:19.577Z,98715.94
2022-10-02T02:53:07.800Z,98709.63
2022-10-02T02:55:59.237Z,98713.25
2022-10-02T02:58:32.534Z,98710.11
2022-10-02T03:01:00.987Z,98716.76
2022-10-02T03:03:29.509Z,98715.66
2022-10-02T03:06:26.438Z,98718.92
2022-10-02T03:08:55.130Z,98709.97
2022-10-02T03:11:30.241Z,98719.85
2022-10-02T03:14:10.127Z,98716.67
2022-10-02T03:16:44.448Z,98716.45
2022-10-02T03:19:37.888Z,98718.92
2022-10-02T03:22:36.477Z,98722.68
2022-10-02T03:25:15.609Z,98722.52
2022-10-02T03:27:54.269Z,98719.74
2022-10-02T03:30:24.462Z,98721.91
2022-10-02T03:32:53.953Z,98718.73
2022-10-02T03:35:25.665Z,98721.52
2022-10-02T03:38:00.457Z,98722.98
2022-10-02T03:40:28.689Z,98734.27
2022-10-02T03:42:58.652Z,98734.94
2022-10-02T03:45:50.010Z,98735.29
2022-10-02T03:48:17.201Z,98737.69
2022-10-02T03:50:45.648Z,98737.63
2022-10-02T03:53:16.692Z,98742.73
2022-10-02T03:55:48.889Z,98743.34
2022-10-02T03:58:18.399Z,98754.05
2022-10-02T04:00:56.341Z,98760.14
2022-10-02T04:03:34.379Z,98764.41
2022-10-02T04:06:16.808Z,98765.73
2022-10-02T04:08:54.601Z,98773.45
2022-10-02T04:11:35.680Z,98777.41
2022-10-02T04:14:23.001Z,98783.21
2022-10-02T04:16:58.772Z,98793.71
2022-10-02T04:19:32.204Z,98803.67
2022-10-02T04:22:06.517Z,98808.66
2022-10-02T04:24:44.803Z,98820.81
2022-10-02T04:27:33.745Z,98825.96
2022-10-02T04:30:07.004Z,98828.32
2022-10-02T04:32:37.184Z,98829.90
2022-10-02T04:35:16.536Z,98832.70
2022-10-02T04:38:26.155Z,98837.13
2022-10-02T04:41:13.167Z,98840.95
2022-10-02T04:44:00.160Z,98854.04
2022-10-02T04:46:50.169Z,98857.79
2022-10-02T04:49:21.297Z,98861.80
2022-10-02T04:52:08.019Z,98863.48
2022-10-02T04:54:45.716Z,98879.66
2022-10-02T04:57:22.799Z,98883.39
2022-10-02T05:00:09.611Z,98878.11
2022-10-02T05:03:15.069Z,98874.46
2022-10-02T05:05:52.229Z,98875.80
2022-10-02T05:08:38.846Z,98873.23
2022-10-02T05:11:34.772Z,98874.11
2022-10-02T05:14:15.139Z,98878.19
2022-10-02T05:17:05.865Z,98877.30
2022-10-02T05:19:52.214Z,98886.65
2022-10-02T05:22:52.581Z,98885.31
2022-10-02T05:25:57.381Z,98896.06
2022-10-02T05:28:43.897Z,98902.48
2022-10-02T05:31:21.207Z,98901.72
2022-10-02T05:33:55.704Z,98907.42
2022-10-02T05:36:35.733Z,98909.25
2022-10-02T05:39:08.782Z,98907.17
2022-10-02T05:41:45.969Z,98905.69
2022-10-02T05:44:38.457Z,98904.83
2022-10-02T05:47:40.016Z,98917.42
2022-10-02T05:50:31.098Z,98919.15
2022-10-02T05:53:19.077Z,98923.33
2022-10-02T05:55:53.301Z,98928.34
2022-10-02T05:58:24.296Z,98933.23
2022-10-02T06:01:11.265Z,98941.48
2022-10-02T06:03:50.786Z,98956.26
2022-10-02T06:06:41.291Z,98947.34
2022-10-02T06:09:29.834Z,98950.82
2022-10-02T06:12:03.244Z,98962.72
2022-10-02T06:14:34.683Z,98960.72
2022-10-02T06:17:26.617Z,98958.79
2022-10-02T06:20:09.002Z,98965.62
2022-10-02T06:23:01.563Z,98984.15
2022-10-02T06:25:34.085Z,98993.42
2022-10-02T06:28:09.429Z,99000.21
2022-10-02T06:30:40.939Z,99015.15
2022-10-02T06:33:23.624Z,99017.81
2022-10-02T06:36:30.254Z,99031.40
2022-10-02T06:39:14.205Z,99043.31
2022-10-02T06:41:57.686Z,99061.95
2022-10-02T06:44:41.005Z,99059.67
2022-10-02T06:47:35.422Z,99060.60
2022-10-02T06:50:19.549Z,99051.21
2022-10-02T06:53:13.949Z,99058.42
2022-10-02T06:56:00.609Z,99065.84
2022-10-02T06:58:32.285Z,99073.05
2022-10-02T07:01:11.671Z,99067.20
2022-10-02T07:04:06.957Z,99067.95
2022-10-02T07:06:52.892Z,99071.54
2022-10-02T07:09:45.710Z,99077.10
2022-10-02T07:12:20.784Z,99085.56
2022-10-02T07:15:26.456Z,99090.87
2022-10-02T07:18:15.710Z,99093.80
2022-10-02T07:21:06.855Z,99087.62
2022-10-02T07:23:50.294Z,99093.38
2022-10-02T07:26:37.870Z,99092.77
2022-10-02T07:29:09.162Z,99099.06
2022-10-02T07:31:42.731Z,99100.95
2022-10-02T07:34:42.398Z,99102.23
2022-10-02T07:37:20.880Z,99104.08
2022-10-02T07:39:51.841Z,99103.00
2022-10-02T07:42:22.675Z,99099.75
2022-10-02T07:44:56.997Z,99112.81
2022-10-02T07:47:28.238Z,99121.84
2022-10-02T07:50:02.370Z,99116.11
2022-10-02T07:52:36.593Z,99125.48
2022-10-02T07:55:21.204Z,99122.84
2022-10-02T07:58:17.752Z,99132.10
2022-10-02T08:00:51.972Z,99122.46
2022-10-02T08:03:24.715Z,99135.18
2022-10-02T08:05:55.100Z,99121.16
2022-10-02T08:08:47.922Z,99117.52
2022-10-02T08:11:18.749Z,99125.27
2022-10-02T08:13:57.108Z,99121.86
2022-10-02T08:16:35.775Z,99130.04
2022-10-02T08:19:13.076Z,99114.59
2022-10-02T08:21:46.452Z,99126.79
2022-10-02T08:24:27.925Z,99122.66
2022-10-02T08:27:03.118Z,99134.69
2022-10-02T08:29:48.488Z,99142.48
2022-10-02T08:32:16.743Z,99132.35
2022-10-02T08:34:44.917Z,99128.27
2022-10-02T08:37:25.106Z,99127.45
2022-10-02T08:40:29.617Z,99140.77
2022-10-02T08:43:39.445Z,99135.95
2022-10-02T08:46:42.692Z,99142.06
2022-10-02T08:49:13.963Z,99131.56
2022-10-02T08:51:42.278Z,99137.84
2022-10-02T08:54:53.161Z,99141.27
2022-10-02T08:57:39.133Z,99140.09
2022-10-02T09:00:10.290Z,99129.15
2022-10-02T09:03:17.380Z,99144.05
2022-10-02T09:06:09.813Z,99128.36
2022-10-02T09:09:24.336Z,99130.20
2022-10-02T09:12:13.141Z,99118.21
2022-10-02T09:14:45.879Z,99126.54
2022-10-02T09:17:30.991Z,99123.33
2022-10-02T09:20:05.265Z,99131.26
2022-10-02T09:22:51.709Z,99127.20
2022-10-02T09:25:31.759Z,99129.80
2022-10-02T09:28:24.300Z,99129.03
2022-10-02T09:31:11.373Z,99142.48
2022-10-02T09:34:10.152Z,99117.16
2022-10-02T09:36:57.621Z,99120.17
2022-10-02T09:39:47.793Z,99106.16
2022-10-02T09:42:36.504Z,99115.94
2022-10-02T09:45:29.143Z,99114.47
2022-10-02T09:48:23.864Z,99124.15
2022-10-02T09:51:26.412Z,99121.25
2022-10-02T09:54:29.141Z,99109.54
2022-10-02T09:57:36.153Z,99111.84
2022-10-02T10:00:38.588Z,99105.38
2022-10-02T10:03:22.959Z,99104.46
2022-10-02T10:06:15.737Z,99105.72
2022-10-02T10:09:05.281Z,99092.88
2022-10-02T10:11:51.945Z,99088.78
2022-10-02T10:14:57.341Z,99099.84
2022-10-02T10:17:46.222Z,99114.81
2022-10-02T10:20:38.425Z,99101.55
2022-10-02T10:23:25.372Z,99108.17
2022-10-02T10:25:56.515Z,99100.69
2022-10-02T10:28:48.060Z,99098.01
2022-10-02T10:31:38.161Z,99103.19
2022-10-02T10:34:33.076Z,99111.73
2022-10-02T10:37:23.848Z,99122.54
2022-10-02T10:40:11.073Z,99109.55
2022-10-02T10:43:07.851Z,99134.98
2022-10-02T10:45:59.329Z,99125.68
2022-10-02T10:49:06.541Z,99127.70
2022-10-02T10:52:15.449Z,99128.39
2022-10-02T10:55:05.126Z,99146.39
2022-10-02T10:57:46.072Z,99137.23
2022-10-02T11:00:23.013Z,99138.50
2022-10-02T11:03:09.817Z,99125.27
2022-10-02T11:06:03.151Z,99123.59
2022-10-02T11:08:54.597Z,99128.67
2022-10-02T11:12:10.917Z,99125.78
2022-10-02T11:15:00.562Z,99114.03
2022-10-02T11:18:02.407Z,99120.18
2022-10-02T11:20:36.689Z,99115.64
2022-10-02T11:23:20.142Z,99102.46
2022-10-02T11:25:57.409Z,99112.59
2022-10-02T11:28:37.256Z,99123.21
2022-10-02T11:31:23.299Z,99124.69
2022-10-02T11:33:51.952Z,99122.55
2022-10-02T11:36:26.864Z,99117.42
2022-10-02T11:39:14.392Z,99117.39
2022-10-02T11:41:48.498Z,99129.61
2022-10-02T11:44:52.385Z,99122.69
2022-10-02T11:47:42.202Z,99118.13
2022-10-02T11:50:37.661Z,99122.44
2022-10-02T11:53:42.957Z,99122.77
2022-10-02T11:56:35.917Z,99139.25
2022-10-02T11:59:35.032Z,99134.42
2022-10-02T12:02:17.971Z,99128.67
2022-10-02T12:05:04.608Z,99131.23
2022-10-02T12:08:00.929Z,99133.45
2022-10-02T12:10:34.156Z,99126.66
2022-10-02T12:13:26.621Z,99137.36
2022-10-02T12:16:01.335Z,99134.77
2022-10-02T12:18:38.621Z,99143.33
2022-10-02T12:22:05.877Z,99139.48
2022-10-02T12:25:09.292Z,99140.52
2022-10-02T12:28:03.712Z,99136.41
2022-10-02T12:31:01.546Z,99139.68
2022-10-02T12:34:00.122Z,99129.35
2022-10-02T12:36:40.576Z,99134.08
2022-10-02T12:39:32.849Z,99132.88
2022-10-02T12:42:22.618Z,99131.64
2022-10-02T12:45:02.645Z,99132.55
2022-10-02T12:47:36.955Z,99137.42
2022-10-02T12:50:38.629Z,99128.41
2022-10-02T12:53:21.973Z,99125.92
2022-10-02T12:56:00.384Z,99122.98
2022-10-02T12:58:47.936Z,99125.02
2022-10-02T13:01:31.939Z,99122.48
2022-10-02T13:04:24.967Z,99104.79
2022-10-02T13:07:09.618Z,99112.08
2022-10-02T13:09:51.248Z,99117.58
2022-10-02T13:12:44.822Z,99115.02
2022-10-02T13:15:39.308Z,99110.26
2022-10-02T13:18:27.896Z,99105.19
2022-10-02T13:21:12.235Z,99120.05
2022-10-02T13:23:49.449Z,99112.15
2022-10-02T13:26:35.685Z,99118.14
2022-10-02T13:29:22.011Z,99117.54
2022-10-02T13:32:09.015Z,99115.31
2022-10-02T13:35:15.024Z,99121.08
2022-10-02T13:38:14.902Z,99127.46
2022-10-02T13:41:04.392Z,99131.42
2022-10-02T13:43:42.564Z,99135.73
2022-10-02T13:46:29.806Z,99137.59
2022-10-02T13:49:32.873Z,99141.35
2022-10-02T13:52:22.581Z,99144.05
2022-10-02T13:55:31.309Z,99153.64
2022-10-02T13:58:17.699Z,99163.88
2022-10-02T14:01:18.054Z,99166.22
2022-10-02T14:04:05.587Z,99189.23
2022-10-02T14:06:39.653Z,99216.65
2022-10-02T14:09:20.463Z,99247.58
2022-10-02T14:12:15.744Z,99240.89
2022-10-02T14:15:06.424Z,99246.83
2022-10-02T14:17:47.766Z,99231.91
2022-10-02T14:20:45.273Z,99237.29
2022-10-02T14:23:40.176Z,99213.05
2022-10-02T14:26:27.497Z,99207.25
2022-10-02T14:29:26.261Z,99216.67
2022-10-02T14:32:09.820Z,99221.02
2022-10-02T14:34:53.352Z,99213.47
2022-10-02T14:37:24.334Z,99223.67
2022-10-02T14:39:54.977Z,99222.66
2022-10-02T14:42:54.433Z,99221.95
2022-10-02T14:45:44.688Z,99216.95
2022-10-02T14:48:43.518Z,99210.16
2022-10-02T14:51:33.296Z,99223.81
2022-10-02T14:54:16.321Z,99223.53
2022-10-02T14:57:03.748Z,99226.75
2022-10-02T15:00:09.512Z,99224.55
2022-10-02T15:02:59.094Z,99237.92
2022-10-02T15:05:57.162Z,99235.95
2022-10-02T15:08:35.454Z,99241.89
2022-10-02T15:11:06.646Z,99230.10
2022-10-02T15:13:51.481Z,99223.80
2022-10-02T15:16:51.911Z,99217.48
2022-10-02T15:19:31.538Z,99213.61
2022-10-02T15:22:07.131Z,99214.97
2022-10-02T15:24:46.716Z,99209.57
2022-10-02T15:27:17.877Z,99210.43
2022-10-02T15:29:55.133Z,99204.34
2022-10-02T15:32:48.312Z,99210.20
2022-10-02T15:35:28.608Z,99213.69
2022-10-02T15:38:05.941Z,99217.80
2022-10-02T15:40:46.221Z,99223.00
2022-10-02T15:43:15.103Z,99224.95
2022-10-02T15:46:04.735Z,99226.57
2022-10-02T15:48:59.477Z,99224.33
2022-10-02T15:51:55.503Z,99228.77
2022-10-02T15:54:30.137Z,99228.13
2022-10-02T15:57:26.565Z,99231.15
2022-10-02T15:59:58.631Z,99230.78
2022-10-02T16:03:01.906Z,99233.89
2022-10-02T16:05:43.670Z,99233.89
2022-10-02T16:08:30.201Z,99233.13
2022-10-02T16:11:01.160Z,99235.20
2022-10-02T16:13:50.950Z,99240.11
2022-10-02T16:16:37.970Z,99237.26
2022-10-02T16:19:12.150Z,99242.04
2022-10-02T16:22:18.163Z,99242.41
2022-10-02T16:24:53.457Z,99243.48
2022-10-02T16:27:49.932Z,99246.98
2022-10-02T16:30:21.518Z,99247.42
2022-10-02T16:33:04.601Z,99249.04
2022-10-02T16:35:51.023Z,99249.50
2022-10-02T16:38:22.824Z,99248.80
2022-10-02T16:41:28.394Z,99249.83
2022-10-02T16:44:15.085Z,99251.79
2022-10-02T16:46:55.512Z,99258.40
2022-10-02T16:49:39.330Z,99253.88
2022-10-02T16:52:11.461Z,99251.98
2022-10-02T16:54:49.864Z,99257.16
2022-10-02T16:57:41.280Z,99259.85
2022-10-02T17:00:34.273Z,99257.20
2022-10-02T17:03:29.466Z,99260.59
2022-10-02T17:06:19.497Z,99268.52
2022-10-02T17:09:11.886Z,99263.70
2022-10-02T17:11:47.848Z,99261.90
2022-10-02T17:14:41.314Z,99261.14
2022-10-02T17:17:38.876Z,99262.45
2022-10-02T17:20:23.026Z,99263.29
2022-10-02T17:23:16.168Z,99264.73
2022-10-02T17:25:58.335Z,99268.45
2022-10-02T17:28:57.529Z,99273.29
2022-10-02T17:31:38.315Z,99276.28
2022-10-02T17:34:24.529Z,99283.11
2022-10-02T17:37:14.129Z,99282.85
2022-10-02T17:40:05.039Z,99282.09
2022-10-02T17:43:19.681Z,99275.55
2022-10-02T17:46:05.721Z,99270.42
2022-10-02T17:48:52.174Z,99277.84
2022-10-02T17:51:53.624Z,99275.02
2022-10-02T17:55:13.839Z,99275.99
2022-10-02T17:57:50.306Z,99264.27
2022-10-02T18:00:26.565Z,99266.77
2022-10-02T18:03:26.674Z,99264.59
2022-10-02T18:06:17.285Z,99260.71
2022-10-02T18:08:46.575Z,99259.30
2022-10-02T18:11:31.547Z,99260.55
2022-10-02T18:14:12.207Z,99267.23
2022-10-02T18:17:06.818Z,99261.39
2022-10-02T18:19:36.812Z,99261.89
2022-10-02T18:22:05.008Z,99263.25
2022-10-02T18:24:48.316Z,99263.76
2022-10-02T18:28:02.918Z,99256.61
2022-10-02T18:30:43.340Z,99252.48
2022-10-02T18:33:50.315Z,99251.48
2022-10-02T18:36:29.564Z,99255.73
2022-10-02T18:39:14.476Z,99256.55
2022-10-02T18:41:56.999Z,99249.23
2022-10-02T18:45:00.626Z,99257.10
2022-10-02T18:47:48.697Z,99255.91
2022-10-02T18:50:55.461Z,99258.78
2022-10-02T18:53:25.778Z,99259.87
2022-10-02T18:56:07.013Z,99257.22
2022-10-02T18:58:35.129Z,99259.25
2022-10-02T19:01:07.378Z,99259.46
2022-10-02T19:03:38.505Z,99255.34
2022-10-02T19:06:09.609Z,99253.20
2022-10-02T19:09:09.608Z,99253.25
2022-10-02T19:12:12.899Z,99249.89
2022-10-02T19:14:45.989Z,99249.55
2022-10-02T19:17:24.308Z,99257.83
2022-10-02T19:19:56.433Z,99256.26
2022-10-02T19:22:36.426Z,99254.51
2022-10-02T19:25:22.736Z,99258.47
2022-10-02T19:27:56.576Z,99260.01
2022-10-02T19:30:30.325Z,99261.80
2022-10-02T19:33:03.635Z,99258.28
2022-10-02T19:35:43.780Z,99257.54
2022-10-02T19:38:37.160Z,99250.95
2022-10-02T19:41:10.232Z,99241.33
2022-10-02T19:43:49.173Z,99247.80
2022-10-02T19:46:17.487Z,99243.99
2022-10-02T19:48:45.922Z,99244.67
2022-10-02T19:51:21.043Z,99243.86
2022-10-02T19:54:01.431Z,99242.83
2022-10-02T19:56:32.212Z,99242.04
2022-10-02T19:59:06.877Z,99242.81
2022-10-02T20:01:43.923Z,99243.58
2022-10-02T20:04:18.645Z,99242.31
2022-10-02T20:06:53.126Z,99243.49
2022-10-02T20:09:34.613Z,99242.71
2022-10-02T20:12:18.026Z,99239.08
2022-10-02T20:15:00.836Z,99234.52
2022-10-02T20:17:31.469Z,99235.39
2022-10-02T20:20:05.087Z,99233.75
2022-10-02T20:22:42.815Z,99234.27
2022-10-02T20:25:32.441Z,99232.52
2022-10-02T20:28:07.340Z,99233.15
2022-10-02T20:30:42.924Z,99236.41
2022-10-02T20:33:16.516Z,99237.94
2022-10-02T20:35:49.505Z,99239.94
2022-10-02T20:38:17.729Z,99239.95
2022-10-02T20:40:48.896Z,99243.90
2022-10-02T20:43:22.577Z,99242.44
2022-10-02T20:46:29.329Z,99243.02
2022-10-02T20:49:48.290Z,99244.90
2022-10-02T20:52:28.129Z,99248.44
2022-10-02T20:55:05.938Z,99248.91
2022-10-02T20:58:01.928Z,99251.20
2022-10-02T21:00:52.313Z,99248.98
2022-10-02T21:03:58.127Z,99248.31
2022-10-02T21:07:05.848Z,99247.35
2022-10-02T21:10:09.809Z,99244.38
2022-10-02T21:13:16.809Z,99245.35
2022-10-02T21:15:52.156Z,99245.72
2022-10-02T21:18:41.624Z,99239.50
2022-10-02T21:21:31.478Z,99245.75
2022-10-02T21:24:28.443Z,99243.27
2022-10-02T21:27:08.512Z,99244.30
2022-10-02T21:29:54.177Z,99240.96
2022-10-02T21:32:39.549Z,99243.94
2022-10-02T21:35:14.194Z,99241.38
2022-10-02T21:38:13.908Z,99242.25
2022-10-02T21:41:06.641Z,99245.39
2022-10-02T21:44:16.589Z,99242.26
2022-10-02T21:46:59.629Z,99239.50
2022-10-02T21:49:53.489Z,99239.14
2022-10-02T21:53:07.949Z,99236.97
2022-10-02T21:56:20.784Z,99231.66
2022-10-02T21:59:10.770Z,99231.52
2022-10-02T22:02:08.263Z,99230.13
2022-10-02T22:05:25.200Z,99224.63
2022-10-02T22:08:00.568Z,99225.60
2022-10-02T22:10:42.484Z,99220.25
2022-10-02T22:13:31.449Z,99219.69
2022-10-02T22:16:18.910Z,99218.58
2022-10-02T22:19:03.316Z,99218.88
2022-10-02T22:21:45.865Z,99219.27
2022-10-02T22:24:17.064Z,99219.98
2022-10-02T22:27:08.704Z,99221.73
2022-10-02T22:29:42.797Z,99216.21
2022-10-02T22:33:04.741Z,99218.13
2022-10-02T22:36:00.355Z,99209.41
2022-10-02T22:38:38.868Z,99217.29
2022-10-02T22:41:16.409Z,99213.18
2022-10-02T22:43:51.190Z,99206.73
2022-10-02T22:46:28.423Z,99209.15
2022-10-02T22:49:25.517Z,99212.21
2022-10-02T22:52:06.193Z,99212.51
2022-10-02T22:54:55.889Z,99206.73
2022-10-02T22:57:37.269Z,99204.84
2022-10-02T23:00:14.742Z,99207.77
2022-10-02T23:02:45.761Z,99202.10
2022-10-02T23:05:37.200Z,99195.17
2022-10-02T23:08:22.686Z,99192.70
2022-10-02T23:10:54.437Z,99196.23
2022-10-02T23:13:28.165Z,99198.73
2022-10-02T23:16:15.688Z,99197.25
2022-10-02T23:19:18.883Z,99203.69
2022-10-02T23:21:47.688Z,99212.38
2022-10-02T23:24:22.762Z,99211.41
2022-10-02T23:26:50.977Z,99203.02
2022-10-02T23:29:45.151Z,99206.89
2022-10-02T23:32:24.795Z,99204.69
2022-10-02T23:35:14.138Z,99206.34
2022-10-02T23:37:47.036Z,99207.10
2022-10-02T23:41:09.821Z,99209.20
2022-10-02T23:43:43.404Z,99209.48
2022-10-02T23:46:15.516Z,99204.62
2022-10-02T23:48:45.640Z,99203.38
2022-10-02T23:51:43.978Z,99206.04
2022-10-02T23:54:18.077Z,99207.81
2022-10-02T23:57:24.258Z,99201.23
